Time;durP1;ratioP1;P1;durP2;ratioP2;P2;SDS_P1;SDS_P2;PMS_P1;PMS_P2;Temp;Humidity;BMP_temperature;BMP_pressure;BME280_temperature;BME280_humidity;BME280_pressure;Samples;Min_cycle;Max_cycle;Signal;HPM_P1;HPM_P2
2020/12/05 00:02:16;;;;;;;7.78;4.03;;;2.00;99.90;;;;;;5073950;28;20027;-68
2020/12/05 00:04:42;;;;;;;4.35;3.47;;;2.00;99.90;;;;;;5073029;28;20127;-68
2020/12/05 00:07:08;;;;;;;6.45;3.33;;;2.00;99.90;;;;;;5073632;28;20038;-67
2020/12/05 00:09:34;;;;;;;6.70;3.45;;;2.00;99.90;;;;;;5068043;28;20310;-68
2020/12/05 00:12:06;;;;;;;5.35;2.80;;;2.00;99.90;;;;;;5063852;28;20111;-68
2020/12/05 00:14:31;;;;;;;7.40;3.58;;;2.00;99.90;;;;;;5072530;28;20139;-68
2020/12/05 00:16:57;;;;;;;5.75;3.20;;;2.00;99.90;;;;;;5071852;28;20112;-68
2020/12/05 00:19:23;;;;;;;5.50;3.10;;;2.00;99.90;;;;;;5073106;28;20031;-67
2020/12/05 00:21:54;;;;;;;6.47;3.33;;;2.00;99.90;;;;;;5073829;28;20054;-68
2020/12/05 00:24:20;;;;;;;5.80;3.25;;;2.00;99.90;;;;;;5072692;28;20028;-70
2020/12/05 00:26:52;;;;;;;6.15;3.38;;;2.00;99.90;;;;;;5073489;28;20074;-69
2020/12/05 00:29:18;;;;;;;12.32;4.10;;;2.00;99.90;;;;;;5073391;28;20028;-69
2020/12/05 00:31:49;;;;;;;5.10;3.08;;;2.00;99.90;;;;;;5072655;28;20017;-69
2020/12/05 00:34:14;;;;;;;5.57;3.58;;;2.00;99.90;;;;;;5073184;28;20480;-69
2020/12/05 00:36:40;;;;;;;4.40;3.17;;;2.00;99.90;;;;;;5073214;28;20029;-69
2020/12/05 00:39:05;;;;;;;10.18;3.60;;;2.00;99.90;;;;;;5072718;28;20103;-69
2020/12/05 00:41:31;;;;;;;4.75;3.58;;;2.00;99.90;;;;;;5072867;28;20027;-68
2020/12/05 00:43:56;;;;;;;4.72;3.70;;;2.00;99.90;;;;;;5073216;28;20031;-69
2020/12/05 00:46:23;;;;;;;5.35;4.13;;;2.00;99.90;;;;;;5072149;28;20024;-68
2020/12/05 00:48:48;;;;;;;7.50;4.28;;;2.00;99.90;;;;;;5072912;28;20028;-69
2020/12/05 00:51:14;;;;;;;7.63;4.00;;;2.00;99.90;;;;;;5072711;28;20016;-69
2020/12/05 00:53:39;;;;;;;7.13;4.40;;;1.90;99.90;;;;;;5071940;28;20380;-69
2020/12/05 00:56:05;;;;;;;7.97;3.97;;;1.90;99.90;;;;;;5073012;28;20108;-69
2020/12/05 00:58:37;;;;;;;5.47;4.18;;;1.90;99.90;;;;;;5072626;28;20055;-69
2020/12/05 01:01:04;;;;;;;6.03;4.22;;;1.90;99.90;;;;;;5072404;28;20063;-69
2020/12/05 01:03:30;;;;;;;6.57;3.90;;;1.90;99.90;;;;;;5072526;28;20464;-68
2020/12/05 01:05:55;;;;;;;5.05;3.78;;;1.80;99.90;;;;;;5072557;28;20028;-69
2020/12/05 01:08:21;;;;;;;4.38;3.97;;;1.80;99.90;;;;;;5071874;28;20017;-69
2020/12/05 01:10:46;;;;;;;5.97;4.43;;;1.80;99.90;;;;;;5073605;28;20047;-69
2020/12/05 01:13:15;;;;;;;8.80;4.55;;;1.80;99.90;;;;;;5072952;28;20056;-69
2020/12/05 01:15:40;;;;;;;6.93;4.45;;;1.70;99.90;;;;;;5072957;28;20021;-69
2020/12/05 01:18:06;;;;;;;10.05;4.68;;;1.70;99.90;;;;;;5072381;28;20024;-69
2020/12/05 01:20:31;;;;;;;7.38;4.30;;;1.70;99.90;;;;;;5071427;28;20036;-69
2020/12/05 01:22:57;;;;;;;10.68;4.85;;;1.70;99.90;;;;;;5071868;28;20028;-68
2020/12/05 01:25:22;;;;;;;7.20;4.78;;;1.70;99.90;;;;;;5072098;28;20020;-69
2020/12/05 01:27:48;;;;;;;6.22;5.28;;;1.70;99.90;;;;;;5070416;28;20034;-69
2020/12/05 01:30:13;;;;;;;5.22;4.65;;;1.60;99.90;;;;;;5071977;28;20012;-69
2020/12/05 01:32:39;;;;;;;11.18;6.57;;;1.70;99.90;;;;;;5082320;28;20020;-69
2020/12/05 01:35:06;;;;;;;8.77;4.60;;;1.70;99.90;;;;;;5091397;28;20036;-69
2020/12/05 01:37:31;;;;;;;6.95;4.22;;;1.60;99.90;;;;;;5091933;28;20100;-69
2020/12/05 01:39:57;;;;;;;6.50;4.47;;;1.70;99.90;;;;;;5090195;28;20119;-69
2020/12/05 01:42:23;;;;;;;11.02;5.32;;;1.60;99.90;;;;;;5079644;28;20035;-68
2020/12/05 01:44:48;;;;;;;10.00;4.40;;;1.60;99.90;;;;;;5092403;28;20020;-69
2020/12/05 01:47:14;;;;;;;12.73;4.75;;;1.60;99.90;;;;;;5092051;28;20398;-69
2020/12/05 01:49:40;;;;;;;11.75;5.93;;;1.60;99.90;;;;;;5079683;28;20081;-69
2020/12/05 01:52:06;;;;;;;7.50;4.53;;;1.60;99.90;;;;;;5089796;28;20016;-68
2020/12/05 01:54:32;;;;;;;12.55;6.50;;;1.50;99.90;;;;;;5091956;28;20106;-68
2020/12/05 01:57:00;;;;;;;6.43;4.38;;;1.50;99.90;;;;;;5091573;28;20031;-69
2020/12/05 01:59:26;;;;;;;11.52;4.90;;;1.50;99.90;;;;;;5091970;28;20024;-69
2020/12/05 02:01:57;;;;;;;7.97;3.95;;;1.40;99.90;;;;;;5091867;28;20031;-69
2020/12/05 02:04:26;;;;;;;5.60;4.07;;;1.50;99.90;;;;;;5091136;28;20103;-69
2020/12/05 02:07:06;;;;;;;4.60;3.80;;;1.40;99.90;;;;;;5078818;28;20094;-69
2020/12/05 02:09:39;;;;;;;14.38;6.28;;;1.40;99.90;;;;;;5064189;28;20451;-69
2020/12/05 02:12:18;;;;;;;7.90;4.22;;;1.40;99.90;;;;;;5091951;28;20031;-69
2020/12/05 02:14:49;;;;;;;6.95;4.68;;;1.30;99.90;;;;;;5066731;28;20170;-69
2020/12/05 02:17:15;;;;;;;;;;;1.30;99.90;;;;;;5090836;28;20403;-69
2020/12/05 02:19:50;;;;;;;6.57;3.88;;;1.30;99.90;;;;;;5085099;28;20363;-69
2020/12/05 02:22:22;;;;;;;8.57;4.68;;;1.30;99.90;;;;;;5085118;28;20024;-69
2020/12/05 02:24:49;;;;;;;8.13;4.18;;;1.30;99.90;;;;;;5091088;28;20114;-69
2020/12/05 02:27:15;;;;;;;9.20;4.50;;;1.30;99.90;;;;;;5091208;28;20474;-68
2020/12/05 02:29:41;;;;;;;8.45;4.38;;;1.20;99.90;;;;;;5091200;28;20020;-69
2020/12/05 02:32:07;;;;;;;6.90;4.00;;;1.30;99.90;;;;;;5091179;28;20016;-69
2020/12/05 02:34:33;;;;;;;5.90;4.47;;;1.20;99.90;;;;;;5090862;28;21737;-69
2020/12/05 02:37:07;;;;;;;7.38;4.03;;;1.20;99.90;;;;;;5091397;28;20106;-69
2020/12/05 02:39:33;;;;;;;9.15;4.82;;;1.30;99.90;;;;;;5089259;28;20282;-69
2020/12/05 02:42:03;;;;;;;9.63;4.25;;;1.30;99.90;;;;;;5078446;28;20525;-69
2020/12/05 02:44:28;;;;;;;6.00;4.20;;;1.30;99.90;;;;;;5091516;28;20590;-69
2020/12/05 02:46:55;;;;;;;7.13;4.43;;;1.30;99.90;;;;;;5090594;28;20020;-69
2020/12/05 02:49:21;;;;;;;5.53;4.65;;;1.30;99.90;;;;;;5091255;28;20028;-69
2020/12/05 02:51:46;;;;;;;5.53;4.43;;;1.30;99.90;;;;;;5090789;28;20028;-69
2020/12/05 02:54:12;;;;;;;7.72;5.10;;;1.30;99.90;;;;;;5091779;28;20043;-69
2020/12/05 02:56:37;;;;;;;10.05;5.15;;;1.30;99.90;;;;;;5091300;28;20475;-69
2020/12/05 02:59:04;;;;;;;6.55;4.22;;;1.30;99.90;;;;;;5090674;28;20020;-69
2020/12/05 03:01:30;;;;;;;7.35;4.80;;;1.30;99.90;;;;;;5091479;28;20066;-70
2020/12/05 03:03:55;;;;;;;10.95;5.00;;;1.30;99.90;;;;;;5091442;28;20017;-68
2020/12/05 03:06:21;;;;;;;7.82;4.90;;;1.30;99.90;;;;;;5090044;28;20415;-68
2020/12/05 03:08:46;;;;;;;5.20;4.57;;;1.30;99.90;;;;;;5090976;28;20063;-68
2020/12/05 03:11:12;;;;;;;6.43;4.32;;;1.40;99.90;;;;;;5090876;28;20056;-68
2020/12/05 03:13:37;;;;;;;5.22;4.68;;;1.40;99.90;;;;;;5090098;28;20072;-68
2020/12/05 03:16:03;;;;;;;6.10;4.55;;;1.30;99.90;;;;;;5091147;28;20039;-68
2020/12/05 03:18:29;;;;;;;16.95;5.65;;;1.30;99.90;;;;;;5090617;28;20420;-68
2020/12/05 03:20:54;;;;;;;8.70;5.45;;;1.30;99.90;;;;;;5090137;28;20020;-68
2020/12/05 03:23:20;;;;;;;7.70;5.10;;;1.30;99.90;;;;;;5090557;28;20077;-68
2020/12/05 03:25:45;;;;;;;5.90;5.20;;;1.30;99.90;;;;;;5090577;28;20032;-68
2020/12/05 03:28:11;;;;;;;6.68;5.95;;;1.30;99.90;;;;;;5090334;28;20028;-68
2020/12/05 03:30:37;;;;;;;7.38;5.32;;;1.30;99.90;;;;;;5090372;28;20024;-68
2020/12/05 03:33:02;;;;;;;8.10;5.18;;;1.30;99.90;;;;;;5090585;28;20588;-68
2020/12/05 03:35:28;;;;;;;7.75;5.50;;;1.30;99.90;;;;;;5089836;28;20024;-68
2020/12/05 03:37:54;;;;;;;10.85;6.32;;;1.30;99.90;;;;;;5084888;28;20115;-68
2020/12/05 03:40:20;;;;;;;7.15;5.95;;;1.30;99.90;;;;;;5069955;28;20174;-69
2020/12/05 03:42:45;;;;;;;11.73;7.68;;;1.30;99.90;;;;;;5083416;28;20102;-68
2020/12/05 03:45:11;;;;;;;12.45;8.55;;;1.20;99.90;;;;;;5090655;28;20079;-69
2020/12/05 03:47:36;;;;;;;12.93;8.27;;;1.20;99.90;;;;;;5090516;28;20020;-67
2020/12/05 03:50:03;;;;;;;11.57;8.70;;;1.20;99.90;;;;;;5089749;28;20027;-69
2020/12/05 03:52:29;;;;;;;13.88;8.32;;;1.20;99.90;;;;;;5094208;28;20213;-69
2020/12/05 03:54:55;;;;;;;16.45;8.65;;;1.10;99.90;;;;;;5093318;28;20195;-70
2020/12/05 03:57:22;;;;;;;10.68;7.70;;;1.10;99.90;;;;;;5094353;28;20008;-69
2020/12/05 03:59:47;;;;;;;13.98;6.95;;;1.10;99.90;;;;;;5094435;28;20020;-68
2020/12/05 04:02:13;;;;;;;8.02;6.25;;;1.10;99.90;;;;;;5093197;28;20027;-68
2020/12/05 04:04:39;;;;;;;12.18;5.78;;;1.10;99.90;;;;;;5094383;28;20097;-70
2020/12/05 04:07:04;;;;;;;8.93;5.25;;;1.00;99.90;;;;;;5094102;28;20412;-67
2020/12/05 04:09:30;;;;;;;8.23;6.10;;;1.00;99.90;;;;;;5093085;28;20537;-68
2020/12/05 04:11:55;;;;;;;9.93;5.60;;;1.00;99.90;;;;;;5094081;28;20034;-68
2020/12/05 04:14:21;;;;;;;7.53;5.47;;;1.00;99.90;;;;;;5093702;28;20048;-68
2020/12/05 04:16:47;;;;;;;8.95;5.15;;;1.00;99.90;;;;;;5093801;28;20020;-68
2020/12/05 04:19:12;;;;;;;10.18;5.35;;;1.00;99.90;;;;;;5094364;28;20016;-68
2020/12/05 04:21:38;;;;;;;8.75;5.63;;;1.00;99.90;;;;;;5093928;28;20020;-68
2020/12/05 04:24:03;;;;;;;6.25;4.63;;;1.00;99.90;;;;;;5092862;28;20086;-68
2020/12/05 04:26:29;;;;;;;6.95;4.85;;;1.00;99.90;;;;;;5093476;28;20016;-68
2020/12/05 04:28:54;;;;;;;6.68;5.00;;;1.00;99.90;;;;;;5093737;28;20519;-68
2020/12/05 04:31:20;;;;;;;9.02;6.30;;;1.00;99.90;;;;;;5092886;28;20059;-68
2020/12/05 04:33:46;;;;;;;8.07;5.90;;;1.00;99.90;;;;;;5093569;28;20035;-68
2020/12/05 04:36:11;;;;;;;10.20;6.07;;;1.00;99.90;;;;;;5093521;28;20454;-68
2020/12/05 04:38:37;;;;;;;9.93;5.45;;;1.00;99.90;;;;;;5092551;28;20028;-68
2020/12/05 04:41:02;;;;;;;6.85;5.38;;;1.00;99.90;;;;;;5079693;28;20111;-68
2020/12/05 04:43:29;;;;;;;9.52;5.60;;;1.10;99.90;;;;;;5092516;28;20024;-68
2020/12/05 04:45:56;;;;;;;12.85;6.13;;;1.00;99.90;;;;;;5092963;28;20353;-68
2020/12/05 04:48:22;;;;;;;8.55;5.40;;;1.10;99.90;;;;;;5092987;28;20107;-68
2020/12/05 04:50:48;;;;;;;11.38;5.78;;;1.10;99.90;;;;;;5093282;28;20051;-68
2020/12/05 04:53:22;;;;;;;11.32;5.90;;;1.10;99.90;;;;;;5090675;28;20035;-68
2020/12/05 04:55:48;;;;;;;9.60;5.03;;;1.10;99.90;;;;;;5093332;28;20030;-69
2020/12/05 04:58:21;;;;;;;7.95;4.28;;;1.10;99.90;;;;;;5092221;28;20020;-69
2020/12/05 05:00:52;;;;;;;7.00;5.28;;;1.10;99.90;;;;;;5093096;28;20107;-69
2020/12/05 05:03:21;;;;;;;9.07;5.57;;;1.10;99.90;;;;;;5092589;28;20448;-69
2020/12/05 05:05:48;;;;;;;7.90;5.50;;;1.10;99.90;;;;;;5092207;28;20065;-69
2020/12/05 05:08:15;;;;;;;7.18;5.85;;;1.10;99.90;;;;;;5092826;28;20024;-68
2020/12/05 05:10:41;;;;;;;8.68;6.00;;;1.10;99.90;;;;;;5078551;28;20099;-68
2020/12/05 05:15:41;;;;;;;6.97;5.72;;;1.10;99.90;;;;;;5092935;28;20093;-69
2020/12/05 05:18:08;;;;;;;8.27;5.88;;;1.10;99.90;;;;;;5092814;28;20024;-68
2020/12/05 05:20:45;;;;;;;8.57;6.00;;;1.10;99.90;;;;;;5091101;28;20028;-69
2020/12/05 05:23:16;;;;;;;13.13;6.93;;;1.10;99.90;;;;;;5092272;28;20020;-68
2020/12/05 05:25:53;;;;;;;13.02;7.63;;;1.10;99.90;;;;;;5091810;28;20028;-69
2020/12/05 05:28:19;;;;;;;8.40;6.00;;;1.10;99.90;;;;;;5090919;28;20028;-69
2020/12/05 05:31:42;;;;;;;7.30;5.45;;;1.10;99.90;;;;;;5092140;28;20502;-69
2020/12/05 05:34:08;;;;;;;9.82;6.13;;;1.10;99.90;;;;;;5068032;28;20131;-69
2020/12/05 05:36:34;;;;;;;8.02;5.80;;;1.10;99.90;;;;;;5092091;28;20035;-69
2020/12/05 05:39:03;;;;;;;11.60;5.82;;;1.10;99.90;;;;;;5092227;28;20055;-69
2020/12/05 05:41:29;;;;;;;7.20;5.40;;;1.10;99.90;;;;;;5077029;28;20153;-69
2020/12/05 05:44:10;;;;;;;8.52;5.78;;;1.10;99.90;;;;;;5092485;28;20111;-69
2020/12/05 05:46:42;;;;;;;7.70;6.00;;;1.10;99.90;;;;;;5091759;28;20027;-69
2020/12/05 05:49:09;;;;;;;10.95;6.30;;;1.10;99.90;;;;;;5091591;28;20119;-69
2020/12/05 05:51:46;;;;;;;9.13;6.50;;;1.20;99.90;;;;;;5091855;28;20089;-68
2020/12/05 05:54:26;;;;;;;7.57;5.45;;;1.20;99.90;;;;;;5092440;28;20040;-69
2020/12/05 05:56:58;;;;;;;6.53;5.55;;;1.20;99.90;;;;;;5091433;28;20081;-69
2020/12/05 05:59:26;;;;;;;8.80;5.05;;;1.20;99.90;;;;;;5091837;28;20016;-69
2020/12/05 06:01:53;;;;;;;7.03;4.85;;;1.20;99.90;;;;;;5091219;28;20464;-69
2020/12/05 06:04:34;;;;;;;7.85;5.97;;;1.20;99.90;;;;;;5091423;28;20054;-69
2020/12/05 06:07:00;;;;;;;8.98;5.22;;;1.20;99.90;;;;;;5092054;28;20420;-69
2020/12/05 06:09:36;;;;;;;6.68;5.25;;;1.20;99.90;;;;;;5090979;28;20111;-68
2020/12/05 06:12:03;;;;;;;7.38;5.07;;;1.20;99.90;;;;;;5091631;28;20123;-68
2020/12/05 06:14:29;;;;;;;12.02;6.10;;;1.20;99.90;;;;;;5090489;28;20090;-68
2020/12/05 06:16:57;;;;;;;13.07;4.97;;;1.20;99.90;;;;;;5091145;28;20028;-68
2020/12/05 06:19:24;;;;;;;6.03;4.38;;;1.10;99.90;;;;;;5091284;28;20020;-69
2020/12/05 06:21:56;;;;;;;6.53;5.65;;;1.10;99.90;;;;;;5091494;28;20430;-69
2020/12/05 06:24:40;;;;;;;8.52;5.40;;;1.00;99.90;;;;;;5089891;28;20019;-68
2020/12/05 06:27:08;;;;;;;5.43;4.45;;;1.00;99.90;;;;;;5091325;28;20028;-68
2020/12/05 06:29:36;;;;;;;6.18;4.97;;;1.00;99.90;;;;;;5091272;28;20035;-68
2020/12/05 06:32:01;;;;;;;10.88;4.90;;;1.00;99.90;;;;;;5090469;28;20044;-68
2020/12/05 06:34:43;;;;;;;8.68;5.40;;;1.00;99.90;;;;;;5071857;28;20107;-68
2020/12/05 06:37:30;;;;;;;9.25;5.30;;;1.00;99.90;;;;;;5070324;28;20472;-69
2020/12/05 06:40:04;;;;;;;9.65;5.15;;;1.00;99.90;;;;;;5071425;28;20108;-68
2020/12/05 06:42:38;;;;;;;10.18;5.28;;;1.00;99.90;;;;;;5082434;28;20203;-68
2020/12/05 06:45:05;;;;;;;5.97;4.80;;;1.00;99.90;;;;;;5090732;28;20451;-68
2020/12/05 06:47:30;;;;;;;7.18;4.97;;;1.00;99.90;;;;;;5090989;28;20024;-68
2020/12/05 06:49:57;;;;;;;9.00;5.57;;;1.00;99.90;;;;;;5091057;28;20383;-68
2020/12/05 06:52:22;;;;;;;11.70;5.40;;;1.00;99.90;;;;;;5090464;28;20038;-67
2020/12/05 06:54:59;;;;;;;7.53;5.55;;;1.10;99.90;;;;;;5091293;28;20033;-67
2020/12/05 06:57:27;;;;;;;10.48;6.18;;;1.10;99.90;;;;;;5088191;28;20119;-67
2020/12/05 07:00:13;;;;;;;5.65;4.88;;;1.10;99.90;;;;;;5089005;28;20032;-68
2020/12/05 07:02:39;;;;;;;6.07;5.47;;;1.20;99.90;;;;;;5087313;28;20086;-68
2020/12/05 07:05:16;;;;;;;7.15;6.18;;;1.20;99.90;;;;;;5087373;28;20030;-68
2020/12/05 07:07:43;;;;;;;10.68;6.07;;;1.30;99.90;;;;;;5088230;28;20028;-67
2020/12/05 07:10:09;;;;;;;14.13;6.20;;;1.30;99.90;;;;;;5089177;28;20032;-67
2020/12/05 07:12:36;;;;;;;6.72;4.95;;;1.30;99.90;;;;;;5085034;28;20032;-68
2020/12/05 07:15:25;;;;;;;12.85;5.82;;;1.40;99.90;;;;;;5087981;28;20048;-68
2020/12/05 07:17:55;;;;;;;7.45;5.78;;;1.30;99.90;;;;;;5088444;28;20030;-67
2020/12/05 07:20:22;;;;;;;10.23;6.47;;;1.30;99.90;;;;;;5086400;28;20032;-68
2020/12/05 07:22:51;;;;;;;10.77;6.28;;;1.40;99.90;;;;;;5083626;28;20051;-69
2020/12/05 07:25:18;;;;;;;7.07;5.45;;;1.40;99.90;;;;;;5090077;28;20028;-69
2020/12/05 07:27:44;;;;;;;9.20;5.90;;;1.40;99.90;;;;;;5093025;28;20028;-68
2020/12/05 07:30:11;;;;;;;7.53;5.68;;;1.40;99.90;;;;;;5094007;28;20027;-68
2020/12/05 07:32:40;;;;;;;9.30;5.85;;;1.40;99.90;;;;;;5085962;28;20032;-68
2020/12/05 07:35:07;;;;;;;7.43;5.75;;;1.40;99.90;;;;;;5091423;28;20032;-68
2020/12/05 07:37:34;;;;;;;6.78;5.85;;;1.40;99.90;;;;;;5090330;28;20020;-68
2020/12/05 07:40:00;;;;;;;9.75;6.40;;;1.40;99.90;;;;;;5089097;28;20104;-68
2020/12/05 07:42:37;;;;;;;8.80;6.13;;;1.40;99.90;;;;;;5091474;28;20028;-68
2020/12/05 07:45:08;;;;;;;13.85;6.70;;;1.40;99.90;;;;;;5089700;28;20027;-68
2020/12/05 07:47:33;;;;;;;;;;;1.40;99.90;;;;;;5091669;28;20030;-68
2020/12/05 07:50:01;;;;;;;8.30;6.20;;;1.50;99.90;;;;;;5091242;28;19991;-68
2020/12/05 07:52:27;;;;;;;7.22;6.35;;;1.50;99.90;;;;;;5092420;28;20036;-68
2020/12/05 07:55:01;;;;;;;11.05;6.50;;;1.50;99.90;;;;;;5089686;28;20039;-68
2020/12/05 07:57:28;;;;;;;8.77;6.53;;;1.60;99.90;;;;;;5090758;28;20384;-68
2020/12/05 08:00:13;;;;;;;9.48;6.68;;;1.50;99.90;;;;;;5090797;28;20019;-69
2020/12/05 08:03:18;;;;;;;9.63;6.10;;;1.60;99.90;;;;;;5089315;28;20028;-67
2020/12/05 08:05:49;;;;;;;9.65;6.30;;;1.60;99.90;;;;;;5088253;28;20111;-70
2020/12/05 08:08:17;;;;;;;11.05;6.47;;;1.70;99.90;;;;;;5085657;28;20031;-68
2020/12/05 08:10:43;;;;;;;9.40;6.63;;;1.70;99.90;;;;;;5089894;28;20025;-68
2020/12/05 08:13:25;;;;;;;7.75;5.95;;;1.70;99.90;;;;;;5086167;28;20081;-68
2020/12/05 08:16:02;;;;;;;9.75;5.97;;;1.70;99.90;;;;;;5090915;28;20078;-67
2020/12/05 08:18:29;;;;;;;10.05;6.93;;;1.70;99.90;;;;;;5083416;28;20029;-68
2020/12/05 08:20:54;;;;;;;10.30;6.60;;;1.90;99.90;;;;;;5092604;28;20016;-69
2020/12/05 08:23:32;;;;;;;11.20;6.55;;;1.90;99.90;;;;;;5089465;28;20013;-69
2020/12/05 08:26:03;;;;;;;7.55;6.07;;;2.00;99.90;;;;;;5087843;28;20032;-68
2020/12/05 08:28:37;;;;;;;12.45;6.78;;;2.00;99.90;;;;;;5086293;28;20036;-69
2020/12/05 08:31:05;;;;;;;8.73;6.05;;;2.00;99.90;;;;;;5084928;28;20024;-69
2020/12/05 08:33:31;;;;;;;12.82;6.28;;;2.10;99.90;;;;;;5082151;28;20040;-67
2020/12/05 08:35:56;;;;;;;10.93;6.10;;;2.00;99.90;;;;;;5073227;28;20021;-69
2020/12/05 08:38:24;;;;;;;11.68;6.72;;;2.10;99.90;;;;;;5072301;28;20043;-69
2020/12/05 08:41:01;;;;;;;8.73;6.50;;;2.10;99.90;;;;;;5073616;28;20055;-68
2020/12/05 08:43:28;;;;;;;10.15;6.55;;;2.10;99.90;;;;;;5092052;28;20024;-68
2020/12/05 08:45:53;;;;;;;11.02;6.60;;;2.10;99.90;;;;;;5093813;28;20127;-68
2020/12/05 08:48:20;;;;;;;10.20;6.57;;;2.20;99.90;;;;;;5093182;28;20123;-67
2020/12/05 08:50:46;;;;;;;7.95;5.93;;;2.20;99.90;;;;;;5092852;28;20026;-68
2020/12/05 08:53:13;;;;;;;8.88;6.53;;;2.20;99.90;;;;;;5093679;28;20036;-67
2020/12/05 08:55:45;;;;;;;10.05;6.68;;;2.10;99.90;;;;;;5092238;28;20377;-67
2020/12/05 08:58:10;;;;;;;7.93;6.55;;;2.10;99.90;;;;;;5092903;28;20110;-68
2020/12/05 09:00:36;;;;;;;8.02;6.55;;;2.10;99.90;;;;;;5093154;28;20100;-67
2020/12/05 09:03:02;;;;;;;13.95;7.28;;;2.20;99.90;;;;;;5093454;28;20020;-68
2020/12/05 09:05:29;;;;;;;8.32;6.43;;;2.20;99.90;;;;;;5092231;28;20475;-67
2020/12/05 09:08:00;;;;;;;10.52;7.47;;;2.20;99.90;;;;;;5093658;28;20606;-68
2020/12/05 09:10:27;;;;;;;10.82;6.28;;;2.30;99.90;;;;;;5092869;28;20028;-69
2020/12/05 09:13:03;;;;;;;8.88;6.63;;;2.40;99.90;;;;;;5082008;28;20067;-69
2020/12/05 09:15:28;;;;;;;8.90;7.63;;;2.50;99.90;;;;;;5092570;28;20047;-67
2020/12/05 09:17:57;;;;;;;9.07;7.00;;;2.60;99.90;;;;;;5092915;28;20016;-68
2020/12/05 09:20:23;;;;;;;10.63;6.57;;;2.70;99.90;;;;;;5092178;28;20020;-68
2020/12/05 09:22:54;;;;;;;8.05;6.55;;;2.70;99.90;;;;;;5093250;28;20368;-68
2020/12/05 09:25:38;;;;;;;8.02;6.57;;;2.80;99.90;;;;;;5092997;28;20081;-67
2020/12/05 09:28:14;;;;;;;10.18;7.10;;;2.80;99.90;;;;;;5092717;28;20463;-68
2020/12/05 09:30:41;;;;;;;9.13;6.32;;;2.90;99.90;;;;;;5092685;28;20027;-66
2020/12/05 09:33:15;;;;;;;8.20;7.03;;;3.00;99.90;;;;;;5092489;28;20117;-67
2020/12/05 09:35:41;;;;;;;7.90;7.03;;;3.00;99.90;;;;;;5092749;28;20142;-68
2020/12/05 09:38:07;;;;;;;8.82;7.40;;;3.00;99.90;;;;;;5092411;28;20050;-68
2020/12/05 09:40:33;;;;;;;11.32;8.38;;;3.10;99.90;;;;;;5082752;28;20035;-70
2020/12/05 09:42:59;;;;;;;9.75;7.50;;;3.10;99.90;;;;;;5082460;28;20035;-69
2020/12/05 09:45:25;;;;;;;13.85;7.53;;;3.20;99.90;;;;;;5088368;28;20124;-68
2020/12/05 09:47:51;;;;;;;8.63;7.30;;;3.20;99.90;;;;;;5076538;28;20469;-67
2020/12/05 09:50:17;;;;;;;10.48;7.20;;;3.30;99.90;;;;;;5078244;28;20024;-67
2020/12/05 09:52:43;;;;;;;12.52;7.80;;;3.30;99.90;;;;;;5086796;28;20042;-68
2020/12/05 09:55:09;;;;;;;13.05;7.68;;;3.40;99.90;;;;;;5071372;28;20047;-68
2020/12/05 09:57:35;;;;;;;11.48;8.43;;;3.40;99.90;;;;;;5071113;28;20439;-68
2020/12/05 10:00:02;;;;;;;9.57;7.82;;;3.50;99.90;;;;;;5071643;28;20020;-68
2020/12/05 10:02:28;;;;;;;10.13;8.32;;;3.50;99.90;;;;;;5070568;28;20032;-68
2020/12/05 10:04:53;;;;;;;12.90;8.68;;;3.50;99.90;;;;;;5071054;28;20028;-68
2020/12/05 10:07:19;;;;;;;9.15;7.32;;;3.50;99.90;;;;;;5071727;28;20116;-68
2020/12/05 10:09:44;;;;;;;11.32;8.07;;;3.60;99.90;;;;;;5070294;28;20017;-69
2020/12/05 10:12:10;;;;;;;9.98;7.15;;;3.70;99.90;;;;;;5072202;28;20029;-68
2020/12/05 10:14:35;;;;;;;8.63;7.43;;;3.70;99.90;;;;;;5071305;28;20040;-68
2020/12/05 10:17:01;;;;;;;11.13;7.38;;;3.70;99.90;;;;;;5075870;28;20016;-68
2020/12/05 10:19:27;;;;;;;12.88;7.43;;;3.80;99.90;;;;;;5091608;28;20028;-70
2020/12/05 10:21:52;;;;;;;10.18;7.68;;;3.90;99.90;;;;;;5091003;28;20031;-68
2020/12/05 10:24:19;;;;;;;11.35;7.32;;;3.90;99.90;;;;;;5091584;28;20052;-70
2020/12/05 10:26:55;;;;;;;10.13;7.78;;;4.00;99.90;;;;;;5091387;28;20024;-70
2020/12/05 10:29:21;;;;;;;10.55;7.15;;;4.10;99.90;;;;;;5090785;28;20051;-69
2020/12/05 10:31:48;;;;;;;8.88;7.32;;;4.10;99.90;;;;;;5091856;28;20024;-68
2020/12/05 10:34:15;;;;;;;9.30;7.10;;;4.10;99.90;;;;;;5091352;28;20392;-68
2020/12/05 10:36:41;;;;;;;8.77;6.68;;;4.20;99.90;;;;;;5090696;28;20027;-69
2020/12/05 10:39:07;;;;;;;10.35;6.20;;;4.20;99.90;;;;;;5091616;28;20447;-68
2020/12/05 10:41:35;;;;;;;9.07;6.07;;;4.30;99.90;;;;;;5077072;28;20034;-68
2020/12/05 10:44:01;;;;;;;8.40;5.28;;;4.30;99.90;;;;;;5090440;28;20134;-68
2020/12/05 10:46:26;;;;;;;5.10;4.60;;;4.40;99.90;;;;;;5091149;28;20107;-69
2020/12/05 10:48:52;;;;;;;6.53;4.57;;;4.40;99.90;;;;;;5091406;28;20093;-68
2020/12/05 10:51:18;;;;;;;4.75;4.05;;;4.50;99.90;;;;;;5090612;28;20048;-68
2020/12/05 10:53:43;;;;;;;5.28;4.32;;;4.50;99.90;;;;;;5091116;28;20028;-68
2020/12/05 10:56:09;;;;;;;5.75;3.83;;;4.60;99.90;;;;;;5091095;28;20446;-68
2020/12/05 10:58:34;;;;;;;7.95;4.05;;;4.70;99.90;;;;;;5090174;28;20024;-68
2020/12/05 11:01:00;;;;;;;7.32;3.50;;;4.80;99.90;;;;;;5090756;28;20329;-68
2020/12/05 11:03:25;;;;;;;7.90;4.28;;;4.80;99.90;;;;;;5090762;28;20476;-68
2020/12/05 11:05:51;;;;;;;5.38;3.53;;;4.90;99.90;;;;;;5090387;28;20116;-69
2020/12/05 11:08:16;;;;;;;7.35;3.88;;;4.90;99.90;;;;;;5090818;28;20052;-69
2020/12/05 11:10:42;;;;;;;4.88;3.35;;;4.90;99.90;;;;;;5091220;28;20024;-68
2020/12/05 11:13:07;;;;;;;6.95;3.60;;;5.00;99.90;;;;;;5090335;28;20040;-68
2020/12/05 11:15:33;;;;;;;4.70;2.90;;;5.00;99.90;;;;;;5091564;28;20040;-69
2020/12/05 11:17:58;;;;;;;3.55;3.20;;;5.10;99.90;;;;;;5091674;28;20059;-69
2020/12/05 11:20:24;;;;;;;6.05;3.75;;;5.10;99.90;;;;;;5091390;28;20202;-70
2020/12/05 11:22:50;;;;;;;4.35;3.03;;;5.20;99.90;;;;;;5090616;28;20035;-69
2020/12/05 11:25:15;;;;;;;4.50;3.47;;;5.20;99.90;;;;;;5089111;28;20036;-69
2020/12/05 11:27:41;;;;;;;3.20;2.90;;;5.20;99.90;;;;;;5091372;28;20028;-69
2020/12/05 11:30:07;;;;;;;6.40;3.28;;;5.30;99.90;;;;;;5091296;28;20028;-69
2020/12/05 11:32:32;;;;;;;4.80;3.17;;;5.30;99.90;;;;;;5090369;28;20086;-69
2020/12/05 11:34:58;;;;;;;6.82;3.00;;;5.30;99.90;;;;;;5091212;28;20035;-68
2020/12/05 11:37:24;;;;;;;7.03;2.80;;;5.30;99.90;;;;;;5090582;28;20456;-68
2020/12/05 11:39:49;;;;;;;5.80;4.00;;;5.40;99.90;;;;;;5087129;28;20061;-69
2020/12/05 11:42:15;;;;;;;4.25;3.30;;;5.40;99.90;;;;;;5079812;28;20051;-70
2020/12/05 11:44:40;;;;;;;10.02;3.05;;;5.30;99.90;;;;;;5091391;28;20028;-69
2020/12/05 11:47:06;;;;;;;5.55;2.67;;;5.30;99.90;;;;;;5090755;28;20012;-70
2020/12/05 11:49:32;;;;;;;3.95;2.50;;;5.30;99.90;;;;;;5087439;28;20111;-68
2020/12/05 11:51:58;;;;;;;4.35;2.40;;;5.20;99.90;;;;;;5071533;28;20029;-69
2020/12/05 11:54:24;;;;;;;3.67;2.78;;;5.40;99.90;;;;;;5061605;28;20100;-67
2020/12/05 11:56:50;;;;;;;6.72;2.65;;;5.50;99.90;;;;;;5070325;28;20021;-68
2020/12/05 11:59:15;;;;;;;8.88;3.25;;;5.60;99.90;;;;;;5070545;28;20425;-68
2020/12/05 12:01:41;;;;;;;5.97;4.63;;;5.60;99.90;;;;;;5070099;28;20342;-69
2020/12/05 12:04:07;;;;;;;3.38;3.03;;;5.70;99.90;;;;;;5070770;28;20120;-68
2020/12/05 12:06:33;;;;;;;4.35;2.70;;;5.70;99.90;;;;;;5070421;28;20029;-68
2020/12/05 12:09:07;;;;;;;4.03;3.00;;;5.90;99.90;;;;;;5069916;28;20024;-68
2020/12/05 12:11:33;;;;;;;5.07;2.80;;;6.10;99.90;;;;;;5076292;28;20138;-67
2020/12/05 12:13:58;;;;;;;4.40;2.40;;;6.20;99.90;;;;;;5081175;28;20143;-68
2020/12/05 12:16:24;;;;;;;6.20;3.15;;;6.20;99.90;;;;;;5089028;28;20091;-68
2020/12/05 12:18:53;;;;;;;4.22;2.83;;;6.20;99.90;;;;;;5091051;28;20016;-68
2020/12/05 12:21:25;;;;;;;3.60;2.60;;;6.10;99.90;;;;;;5088997;28;20110;-68
2020/12/05 12:23:51;;;;;;;2.83;2.55;;;6.00;99.90;;;;;;5087207;28;20358;-67
2020/12/05 12:26:17;;;;;;;2.88;2.60;;;6.10;99.90;;;;;;5090108;28;20020;-68
2020/12/05 12:28:43;;;;;;;4.03;2.72;;;6.10;99.90;;;;;;5088136;28;20458;-69
2020/12/05 12:31:08;;;;;;;3.92;2.70;;;6.20;99.90;;;;;;5081215;28;20429;-68
2020/12/05 12:33:35;;;;;;;2.90;2.55;;;6.20;99.90;;;;;;5073137;28;20028;-67
2020/12/05 12:36:01;;;;;;;5.00;2.40;;;6.20;99.90;;;;;;5073309;28;20031;-67
2020/12/05 12:38:27;;;;;;;7.88;2.88;;;6.40;99.90;;;;;;5073439;28;20020;-68
2020/12/05 12:40:55;;;;;;;4.18;2.33;;;6.50;99.90;;;;;;5073668;28;20119;-68
2020/12/05 12:43:21;;;;;;;6.43;2.35;;;6.40;99.90;;;;;;5091203;28;20095;-68
2020/12/05 12:45:47;;;;;;;3.97;2.85;;;6.40;99.90;;;;;;5093960;28;20539;-68
2020/12/05 12:50:38;;;;;;;5.50;2.58;;;6.50;99.90;;;;;;5093334;28;20120;-68
2020/12/05 12:53:04;;;;;;;2.70;2.40;;;6.60;99.90;;;;;;5093625;28;20020;-68
2020/12/05 12:55:30;;;;;;;3.25;2.33;;;6.60;99.90;;;;;;5093608;28;20035;-68
2020/12/05 12:58:06;;;;;;;5.50;2.20;;;6.80;99.90;;;;;;5093001;28;20067;-68
2020/12/05 13:00:32;;;;;;;4.53;2.10;;;6.80;99.90;;;;;;5093273;28;20745;-67
2020/12/05 13:02:57;;;;;;;3.80;2.17;;;6.70;99.90;;;;;;5093750;28;20072;-68
2020/12/05 13:05:23;;;;;;;5.75;2.25;;;6.70;99.90;;;;;;5092868;28;20016;-68